createdAt,value
2023-03-28T00:00:28.428Z,2.60
2023-03-28T00:04:15.618Z,2.20
2023-03-28T00:07:42.818Z,2.70
2023-03-28T00:11:15.562Z,4.70
2023-03-28T00:14:43.498Z,1.80
2023-03-28T00:18:11.528Z,2.00
2023-03-28T00:21:41.463Z,2.10
2023-03-28T00:25:09.825Z,4.00
2023-03-28T00:28:38.059Z,2.70
2023-03-28T00:32:05.973Z,1.30
2023-03-28T00:35:33.432Z,1.10
2023-03-28T00:39:01.470Z,0.70
2023-03-28T00:42:28.921Z,1.00
2023-03-28T00:46:06.483Z,1.40
2023-03-28T00:49:36.546Z,2.40
2023-03-28T00:53:07.040Z,2.20
2023-03-28T00:56:37.800Z,2.40
2023-03-28T01:00:06.538Z,1.50
2023-03-28T01:03:37.762Z,2.30
2023-03-28T01:07:06.771Z,2.70
2023-03-28T01:10:37.113Z,1.80
2023-03-28T01:14:07.871Z,2.20
2023-03-28T01:17:35.540Z,2.90
2023-03-28T01:21:48.837Z,2.20
2023-03-28T01:25:52.579Z,1.60
2023-03-28T01:30:01.043Z,1.40
2023-03-28T01:34:05.034Z,1.50
2023-03-28T01:37:41.020Z,1.80
2023-03-28T01:41:17.785Z,2.40
2023-03-28T01:44:56.853Z,2.40
2023-03-28T01:48:35.550Z,2.30
2023-03-28T01:52:09.540Z,2.10
2023-03-28T01:55:42.764Z,2.20
2023-03-28T01:59:18.308Z,2.40
2023-03-28T02:03:18.854Z,2.50
2023-03-28T02:07:10.973Z,2.40
2023-03-28T02:10:57.475Z,2.60
2023-03-28T02:14:42.477Z,2.60
2023-03-28T02:18:42.033Z,2.90
2023-03-28T02:22:48.940Z,3.10
2023-03-28T02:26:37.232Z,2.60
2023-03-28T02:30:23.616Z,2.80
2023-03-28T02:33:52.596Z,3.40
2023-03-28T02:37:31.015Z,3.90
2023-03-28T02:41:09.608Z,3.60
2023-03-28T02:45:01.709Z,3.30
2023-03-28T02:48:40.385Z,3.90
2023-03-28T02:52:14.893Z,3.70
2023-03-28T02:55:50.393Z,3.90
2023-03-28T02:59:43.394Z,3.50
2023-03-28T03:03:11.669Z,5.40
2023-03-28T03:06:39.278Z,5.60
2023-03-28T03:10:07.330Z,4.60
2023-03-28T03:13:34.977Z,4.20
2023-03-28T03:17:02.655Z,3.40
2023-03-28T03:20:33.477Z,4.30
2023-03-28T03:24:00.953Z,3.70
2023-03-28T03:27:28.044Z,4.10
2023-03-28T03:30:55.745Z,3.40
2023-03-28T03:34:52.111Z,3.60
2023-03-28T03:38:19.093Z,3.80
2023-03-28T03:41:46.622Z,3.30
2023-03-28T03:45:15.797Z,3.20
2023-03-28T03:48:49.445Z,3.40
2023-03-28T03:52:17.562Z,4.80
2023-03-28T03:55:44.861Z,3.70
2023-03-28T03:59:12.060Z,4.20
2023-03-28T04:02:39.934Z,4.20
2023-03-28T04:06:08.190Z,4.30
2023-03-28T04:09:35.547Z,4.10
2023-03-28T04:13:04.209Z,3.90
2023-03-28T04:16:40.362Z,3.10
2023-03-28T04:20:13.495Z,2.90
2023-03-28T04:24:04.041Z,2.20
2023-03-28T04:27:37.838Z,3.00
2023-03-28T04:31:05.557Z,2.30
2023-03-28T04:34:52.122Z,2.60
2023-03-28T04:38:20.395Z,2.00
2023-03-28T04:41:49.512Z,2.70
2023-03-28T04:45:30.897Z,2.40
2023-03-28T04:49:01.738Z,2.60
2023-03-28T04:52:29.494Z,2.50
2023-03-28T04:55:57.193Z,2.30
2023-03-28T04:59:25.353Z,2.10
2023-03-28T05:02:57.395Z,2.00
2023-03-28T05:06:26.383Z,1.90
2023-03-28T05:09:54.064Z,2.60
2023-03-28T05:13:21.516Z,2.40
2023-03-28T05:16:59.616Z,2.60
2023-03-28T05:20:26.804Z,2.90
2023-03-28T05:23:56.472Z,2.60
2023-03-28T05:27:24.358Z,2.00
2023-03-28T05:30:52.180Z,2.20
2023-03-28T05:34:19.698Z,1.80
2023-03-28T05:37:47.430Z,2.00
2023-03-28T05:41:14.493Z,2.60
2023-03-28T05:44:41.551Z,3.30
2023-03-28T05:48:27.680Z,3.90
2023-03-28T05:51:54.784Z,3.10
2023-03-28T05:55:22.142Z,2.70
2023-03-28T05:58:49.550Z,2.40
2023-03-28T06:02:18.846Z,3.30
2023-03-28T06:05:46.548Z,3.90
2023-03-28T06:09:25.711Z,3.60
2023-03-28T06:12:58.607Z,3.30
2023-03-28T06:16:30.094Z,2.90
2023-03-28T06:19:59.064Z,3.00
2023-03-28T06:23:27.277Z,2.70
2023-03-28T06:26:54.365Z,3.40
2023-03-28T06:30:23.464Z,2.70
2023-03-28T06:33:51.140Z,3.10
2023-03-28T06:37:20.253Z,3.00
2023-03-28T06:41:01.584Z,2.80
2023-03-28T06:44:29.113Z,2.70
2023-03-28T06:52:10.992Z,2.20
2023-03-28T06:55:39.059Z,2.20
2023-03-28T06:59:06.161Z,2.20
2023-03-28T07:02:33.682Z,2.10
2023-03-28T07:06:07.643Z,2.50
2023-03-28T07:09:34.833Z,2.20
2023-03-28T07:13:07.417Z,2.60
2023-03-28T07:16:35.258Z,2.30
2023-03-28T07:20:04.429Z,2.20
2023-03-28T07:23:31.652Z,2.10
2023-03-28T07:27:13.986Z,2.20
2023-03-28T07:30:43.289Z,2.80
2023-03-28T07:34:10.876Z,2.30
2023-03-28T07:37:38.564Z,2.90
2023-03-28T07:41:31.799Z,2.30
2023-03-28T07:45:00.115Z,2.20
2023-03-28T07:48:28.486Z,2.10
2023-03-28T07:51:55.999Z,2.10
2023-03-28T07:55:23.235Z,2.30
2023-03-28T07:58:50.518Z,2.10
2023-03-28T08:02:17.621Z,2.00
2023-03-28T08:05:51.617Z,1.60
2023-03-28T08:09:20.295Z,1.70
2023-03-28T08:12:50.208Z,1.70
2023-03-28T08:16:17.460Z,1.70
2023-03-28T08:19:45.908Z,1.40
2023-03-28T08:23:13.030Z,1.40
2023-03-28T08:27:07.384Z,1.50
2023-03-28T08:30:34.809Z,1.10
2023-03-28T08:34:02.996Z,0.50
2023-03-28T08:37:35.467Z,1.10
2023-03-28T08:41:11.582Z,1.30
2023-03-28T08:45:09.854Z,1.20
2023-03-28T08:48:44.569Z,1.40
2023-03-28T08:52:14.275Z,1.90
2023-03-28T08:55:44.008Z,2.10
2023-03-28T08:59:16.007Z,2.10
2023-03-28T09:02:44.902Z,1.80
2023-03-28T09:06:28.132Z,0.90
2023-03-28T09:10:07.938Z,1.20
2023-03-28T09:14:06.562Z,1.50
2023-03-28T09:17:45.578Z,1.20
2023-03-28T09:21:19.948Z,1.10
2023-03-28T09:25:02.246Z,1.60
2023-03-28T09:28:45.080Z,2.20
2023-03-28T09:32:19.619Z,1.60
2023-03-28T09:35:48.226Z,1.60
2023-03-28T09:42:53.105Z,1.30
2023-03-28T09:46:41.093Z,1.30
2023-03-28T09:50:21.966Z,1.30
2023-03-28T09:53:54.375Z,1.20
2023-03-28T09:57:21.944Z,1.00
2023-03-28T10:00:59.535Z,1.70
2023-03-28T10:04:53.278Z,1.60
2023-03-28T10:08:42.774Z,1.00
2023-03-28T10:12:36.285Z,1.40
2023-03-28T10:16:05.032Z,1.40
2023-03-28T10:20:00.664Z,1.10
2023-03-28T10:23:31.165Z,1.30
2023-03-28T10:27:07.155Z,1.60
2023-03-28T10:30:36.874Z,1.80
2023-03-28T10:34:04.906Z,1.30
2023-03-28T10:42:11.873Z,3.30
2023-03-28T10:46:09.237Z,3.00
2023-03-28T10:49:50.212Z,1.00
2023-03-28T10:53:40.865Z,1.10
2023-03-28T10:57:17.636Z,1.40
2023-03-28T11:00:55.780Z,1.20
2023-03-28T11:04:39.301Z,2.00
2023-03-28T11:08:13.121Z,2.00
2023-03-28T11:12:08.234Z,1.90
2023-03-28T11:15:42.353Z,2.20
2023-03-28T11:19:33.284Z,2.30
2023-03-28T11:23:11.107Z,2.00
2023-03-28T11:27:08.603Z,2.50
2023-03-28T11:30:57.552Z,1.70
2023-03-28T11:34:40.181Z,1.20
2023-03-28T11:38:14.492Z,1.30
2023-03-28T11:41:46.068Z,1.10
2023-03-28T11:45:42.040Z,1.50
2023-03-28T11:49:22.453Z,1.70
2023-03-28T11:52:56.811Z,1.20
2023-03-28T11:56:37.453Z,1.60
2023-03-28T12:00:45.179Z,2.20
2023-03-28T12:04:18.679Z,2.20
2023-03-28T12:07:52.283Z,3.20
2023-03-28T12:11:33.860Z,5.40
2023-03-28T12:15:10.921Z,3.90
2023-03-28T12:18:52.233Z,1.10
2023-03-28T12:22:42.164Z,2.50
2023-03-28T12:26:21.550Z,1.60
2023-03-28T12:29:53.602Z,2.00
2023-03-28T12:33:27.511Z,1.80
2023-03-28T12:37:13.350Z,2.10
2023-03-28T12:40:56.284Z,1.20
2023-03-28T12:44:29.953Z,0.90
2023-03-28T12:48:03.972Z,1.70
2023-03-28T12:51:36.609Z,1.30
2023-03-28T12:55:07.360Z,1.10
2023-03-28T12:58:43.199Z,1.50
2023-03-28T13:02:48.284Z,1.40
2023-03-28T13:06:23.950Z,1.30
2023-03-28T13:10:00.901Z,1.30
2023-03-28T13:13:40.382Z,1.10
2023-03-28T13:17:22.709Z,1.80
2023-03-28T13:20:52.072Z,1.40
2023-03-28T13:24:34.615Z,1.10
2023-03-28T13:28:22.570Z,1.30
2023-03-28T13:31:51.147Z,1.30
2023-03-28T13:35:39.653Z,1.50
2023-03-28T13:39:25.165Z,1.60
2023-03-28T13:43:01.359Z,1.50
2023-03-28T13:46:32.450Z,5.20
2023-03-28T13:50:05.227Z,7.00
2023-03-28T13:53:46.422Z,3.80
2023-03-28T13:57:20.800Z,1.70
2023-03-28T14:00:48.789Z,1.80
2023-03-28T14:04:23.865Z,1.70
2023-03-28T14:07:54.553Z,7.30
2023-03-28T14:11:30.671Z,2.30
2023-03-28T14:15:02.160Z,3.40
2023-03-28T14:18:36.354Z,46.50
2023-03-28T14:22:07.078Z,47.90
2023-03-28T14:25:35.566Z,25.50
2023-03-28T14:29:07.099Z,16.20
2023-03-28T14:32:36.342Z,32.90
2023-03-28T14:36:11.114Z,26.00
2023-03-28T14:39:40.176Z,12.50
2023-03-28T14:43:20.403Z,6.50
2023-03-28T14:46:49.657Z,68.90
2023-03-28T14:50:19.471Z,40.30
2023-03-28T14:53:48.474Z,23.90
2023-03-28T14:57:18.226Z,18.20
2023-03-28T15:04:14.734Z,6.10
2023-03-28T15:07:42.736Z,3.50
2023-03-28T15:11:15.691Z,2.80
2023-03-28T15:14:46.701Z,2.30
2023-03-28T15:18:25.325Z,1.70
2023-03-28T15:22:00.366Z,1.70
2023-03-28T15:25:27.608Z,2.50
2023-03-28T15:28:56.517Z,1.50
2023-03-28T15:32:23.787Z,1.60
2023-03-28T15:35:51.537Z,1.70
2023-03-28T15:39:26.019Z,1.70
2023-03-28T15:42:53.693Z,1.80
2023-03-28T15:46:23.186Z,5.50
2023-03-28T15:49:50.838Z,7.00
2023-03-28T15:53:19.314Z,2.20
2023-03-28T15:56:49.004Z,1.50
2023-03-28T16:04:24.733Z,1.70
2023-03-28T16:07:52.271Z,1.30
2023-03-28T16:11:23.377Z,1.10
2023-03-28T16:15:11.299Z,1.70
2023-03-28T16:18:51.843Z,2.10
2023-03-28T16:22:20.998Z,2.10
2023-03-28T16:25:48.058Z,1.50
2023-03-28T16:29:15.392Z,1.20
2023-03-28T16:32:42.769Z,1.60
2023-03-28T16:36:12.303Z,1.30
2023-03-28T16:39:42.090Z,2.20
2023-03-28T16:46:35.320Z,3.40
2023-03-28T16:50:02.980Z,4.10
2023-03-28T16:53:30.293Z,5.30
2023-03-28T16:56:57.533Z,6.40
2023-03-28T17:00:25.124Z,3.20
2023-03-28T17:03:53.785Z,2.50
2023-03-28T17:07:22.411Z,2.00
2023-03-28T17:10:49.727Z,2.20
2023-03-28T17:14:16.924Z,2.30
2023-03-28T17:17:44.682Z,2.60
2023-03-28T17:21:19.183Z,1.80
2023-03-28T17:24:49.953Z,1.70
2023-03-28T17:28:23.936Z,2.60
2023-03-28T17:31:51.667Z,2.30
2023-03-28T17:35:21.559Z,2.70
2023-03-28T17:38:49.752Z,2.90
2023-03-28T17:42:17.708Z,2.60
2023-03-28T17:45:44.985Z,3.30
2023-03-28T17:49:12.762Z,2.80
2023-03-28T17:52:41.880Z,3.40
2023-03-28T17:56:11.466Z,5.00
2023-03-28T17:59:39.320Z,5.30
2023-03-28T18:03:11.215Z,5.30
2023-03-28T18:07:02.085Z,4.20
2023-03-28T18:10:47.230Z,2.60
2023-03-28T18:14:15.017Z,3.20
2023-03-28T18:17:44.674Z,2.80
2023-03-28T18:21:12.887Z,3.40
2023-03-28T18:24:40.158Z,3.20
2023-03-28T18:28:08.597Z,3.60
2023-03-28T18:31:37.903Z,4.20
2023-03-28T18:35:09.815Z,4.70
2023-03-28T18:38:43.453Z,4.80
2023-03-28T18:42:12.894Z,4.00
2023-03-28T18:45:40.353Z,3.70
2023-03-28T18:49:07.624Z,4.80
2023-03-28T18:52:38.285Z,5.00
2023-03-28T18:56:13.782Z,5.50
2023-03-28T18:59:44.980Z,6.70
2023-03-28T19:03:17.770Z,5.40
2023-03-28T19:06:45.373Z,4.20
2023-03-28T19:10:15.219Z,3.90
2023-03-28T19:13:54.772Z,3.90
2023-03-28T19:17:28.954Z,4.00
2023-03-28T19:20:59.222Z,5.60
2023-03-28T19:24:26.855Z,10.80
2023-03-28T19:27:57.820Z,5.80
2023-03-28T19:31:26.845Z,3.90
2023-03-28T19:34:57.450Z,3.70
2023-03-28T19:38:27.422Z,4.10
2023-03-28T19:41:56.030Z,4.00
2023-03-28T19:45:23.273Z,5.30
2023-03-28T19:48:50.942Z,4.10
2023-03-28T19:52:18.031Z,6.50
2023-03-28T19:55:51.294Z,19.20
2023-03-28T19:59:18.656Z,8.80
2023-03-28T20:02:45.685Z,7.40
2023-03-28T20:06:16.488Z,6.40
2023-03-28T20:09:48.738Z,6.80
2023-03-28T20:13:16.624Z,7.00
2023-03-28T20:16:43.811Z,6.70
2023-03-28T20:20:12.999Z,8.70
2023-03-28T20:23:40.325Z,8.70
2023-03-28T20:27:08.097Z,8.90
2023-03-28T20:30:35.502Z,9.10
2023-03-28T20:34:02.562Z,9.80
2023-03-28T20:37:29.939Z,10.00
2023-03-28T20:40:57.127Z,11.80
2023-03-28T20:44:24.177Z,12.20
2023-03-28T20:47:56.683Z,13.10
2023-03-28T20:51:24.118Z,14.30
2023-03-28T20:54:51.122Z,13.70
2023-03-28T20:58:18.155Z,13.60
2023-03-28T21:01:46.111Z,13.30
2023-03-28T21:05:14.442Z,15.20
2023-03-28T21:08:42.872Z,15.70
2023-03-28T21:12:10.660Z,11.40
2023-03-28T21:15:37.661Z,13.30
2023-03-28T21:19:05.140Z,12.00
2023-03-28T21:22:33.594Z,11.00
2023-03-28T21:26:01.011Z,10.30
2023-03-28T21:29:28.671Z,9.60
2023-03-28T21:33:01.525Z,9.90
2023-03-28T21:36:30.986Z,8.60
2023-03-28T21:39:58.118Z,10.30
2023-03-28T21:43:25.418Z,9.40
2023-03-28T21:46:52.418Z,9.90
2023-03-28T21:50:19.778Z,9.90
2023-03-28T21:53:47.184Z,11.50
2023-03-28T21:57:14.283Z,10.40
2023-03-28T22:00:41.987Z,11.20
2023-03-28T22:04:09.336Z,10.70
2023-03-28T22:07:36.736Z,12.60
2023-03-28T22:11:04.864Z,11.80
2023-03-28T22:14:32.298Z,12.70
2023-03-28T22:17:59.623Z,13.70
2023-03-28T22:21:30.176Z,14.40
2023-03-28T22:24:58.769Z,14.20
2023-03-28T22:28:26.274Z,15.90
2023-03-28T22:31:53.587Z,14.80
2023-03-28T22:35:20.868Z,15.50
2023-03-28T22:38:48.097Z,15.30
2023-03-28T22:42:16.308Z,15.20
2023-03-28T22:45:43.456Z,15.90
2023-03-28T22:49:13.236Z,16.20
2023-03-28T22:52:42.104Z,16.40
2023-03-28T22:56:10.391Z,15.70
2023-03-28T22:59:37.644Z,16.60
2023-03-28T23:03:05.486Z,16.50
2023-03-28T23:06:33.149Z,17.10
2023-03-28T23:10:00.230Z,15.90
2023-03-28T23:13:27.659Z,15.80
2023-03-28T23:16:54.623Z,16.20
2023-03-28T23:20:22.230Z,15.30
2023-03-28T23:23:49.353Z,14.30
2023-03-28T23:27:16.538Z,15.70
2023-03-28T23:30:43.663Z,13.80
2023-03-28T23:34:10.794Z,14.30
2023-03-28T23:37:38.580Z,15.30
2023-03-28T23:41:06.551Z,15.20
2023-03-28T23:44:34.259Z,15.10
2023-03-28T23:48:01.427Z,15.50
2023-03-28T23:51:29.259Z,16.30
2023-03-28T23:54:56.851Z,14.30
2023-03-28T23:58:23.909Z,14.90
